Terminal Aerodrome Forecast
Issued by NWS Rapid City, SD

Home | Current Version | Previous Version | Text Only | Print | Product List | Glossary Off
Versions: 1 2 3 4 5 6 7 8 9 10 11 12 13 14 15 16 17 18

699
FTUS43 KUNR 270149 AAA
TAFRAP
TAF AMD
KRAP 270149Z 2702/2724 23005KT P6SM VCSH OVC060
     FM270500 31005KT P6SM VCSH OVC050
     FM271000 31006KT P6SM BKN060
     FM271600 34012KT P6SM SCT100=

USA.gov is the U.S. government's official web portal to all federal, state and local government web resources and services.